Time;durP1;ratioP1;P1;durP2;ratioP2;P2;SDS_P1;SDS_P2;PMS_P1;PMS_P2;Temp;Humidity;BMP_temperature;BMP_pressure;BME280_temperature;BME280_humidity;BME280_pressure;Samples;Min_cycle;Max_cycle;Signal;HPM_P1;HPM_P2
2022/10/05 00:01:51;;;;;;;76.03;16.50;;;12.00;99.90;;;;;;5038464;28;20162;-84
2022/10/05 00:04:22;;;;;;;79.60;19.20;;;12.00;99.90;;;;;;5020890;28;20166;-84
2022/10/05 00:06:56;;;;;;;79.40;21.02;;;12.00;99.90;;;;;;5038900;28;20263;-84
2022/10/05 00:09:22;;;;;;;79.72;28.10;;;12.00;99.90;;;;;;5022255;28;20191;-84
2022/10/05 00:11:49;;;;;;;86.03;39.72;;;12.00;99.90;;;;;;5039375;28;20193;-84
2022/10/05 00:14:31;;;;;;;94.78;72.35;;;12.00;99.90;;;;;;5039939;28;20164;-84
2022/10/05 00:16:57;;;;;;;96.35;71.95;;;11.90;99.90;;;;;;5039140;28;20203;-84
2022/10/05 00:19:35;;;;;;;91.83;65.37;;;11.90;99.90;;;;;;5022080;28;20200;-84
2022/10/05 00:22:16;;;;;;;95.93;59.75;;;11.90;99.90;;;;;;5039119;28;20399;-84
2022/10/05 00:24:44;;;;;;;88.43;54.80;;;12.00;99.90;;;;;;5039444;28;20165;-84
2022/10/05 00:27:35;;;;;;;87.75;51.83;;;12.00;99.90;;;;;;5039677;28;20195;-84
2022/10/05 00:30:12;;;;;;;92.30;58.97;;;12.00;99.90;;;;;;5039557;28;20178;-84
2022/10/05 00:32:39;;;;;;;89.03;50.10;;;12.00;99.90;;;;;;5038987;28;20149;-84
2022/10/05 00:35:09;;;;;;;87.93;49.35;;;12.00;99.90;;;;;;5005000;28;20176;-84
2022/10/05 00:37:35;;;;;;;91.47;51.53;;;12.00;99.90;;;;;;5038780;28;20189;-84
2022/10/05 00:40:01;;;;;;;87.77;48.50;;;12.00;99.90;;;;;;5021460;28;20172;-84
2022/10/05 00:42:36;;;;;;;87.17;45.60;;;12.00;99.90;;;;;;5020963;28;20648;-84
2022/10/05 00:45:14;;;;;;;84.85;44.60;;;11.90;99.90;;;;;;5038882;28;20382;-84
2022/10/05 00:47:57;;;;;;;87.13;45.45;;;11.90;99.90;;;;;;5038926;28;20185;-84
2022/10/05 00:50:41;;;;;;;85.13;45.45;;;11.90;99.90;;;;;;5039232;28;20141;-84
2022/10/05 00:53:28;;;;;;;87.78;42.30;;;11.90;99.90;;;;;;5038824;28;20184;-84
2022/10/05 00:56:04;;;;;;;84.28;38.70;;;11.90;99.90;;;;;;5038799;28;20212;-84
2022/10/05 00:58:37;;;;;;;87.18;40.80;;;11.80;99.90;;;;;;5038775;28;20729;-84
2022/10/05 01:01:14;;;;;;;83.50;39.33;;;11.80;99.90;;;;;;5038288;28;20180;-84
2022/10/05 01:04:11;;;;;;;84.28;36.85;;;11.80;99.90;;;;;;5038152;28;20195;-84
2022/10/05 01:07:11;;;;;;;84.15;37.72;;;11.80;99.90;;;;;;5038919;28;20177;-84
2022/10/05 01:09:51;;;;;;;84.13;34.22;;;11.80;99.90;;;;;;5038644;28;20672;-84
2022/10/05 01:12:52;;;;;;;83.18;36.08;;;11.80;99.90;;;;;;5038939;28;20165;-84
2022/10/05 01:15:36;;;;;;;83.55;35.03;;;11.80;99.90;;;;;;5031313;28;20533;-84
2022/10/05 01:18:18;;;;;;;80.70;32.13;;;11.80;99.90;;;;;;5038923;28;20185;-84
2022/10/05 01:20:50;;;;;;;82.85;33.25;;;11.80;99.90;;;;;;5038199;28;20153;-84
2022/10/05 01:23:34;;;;;;;82.72;35.45;;;11.70;99.90;;;;;;5038593;28;20185;-84
2022/10/05 01:26:39;;;;;;;81.95;32.78;;;11.80;99.90;;;;;;5038441;28;20252;-84
2022/10/05 01:29:17;;;;;;;77.70;28.00;;;11.80;99.90;;;;;;5038193;28;20185;-84
2022/10/05 01:31:58;;;;;;;85.70;29.73;;;11.80;99.90;;;;;;5038269;28;20169;-84
2022/10/05 01:34:38;;;;;;;84.13;31.63;;;11.70;99.90;;;;;;5038145;28;20171;-84
2022/10/05 01:37:20;;;;;;;79.35;27.92;;;11.70;99.90;;;;;;5038447;28;20152;-84
2022/10/05 01:40:00;;;;;;;81.10;26.27;;;11.60;99.90;;;;;;5038785;28;20160;-84
2022/10/05 01:42:53;;;;;;;78.75;26.67;;;11.60;99.90;;;;;;5039083;28;20613;-84
2022/10/05 01:45:40;;;;;;;84.38;28.98;;;11.70;99.90;;;;;;5038731;28;20280;-84
2022/10/05 01:48:19;;;;;;;79.50;26.40;;;11.70;99.90;;;;;;5039052;28;20177;-84
2022/10/05 01:51:06;;;;;;;78.25;27.27;;;11.70;99.90;;;;;;5020093;28;20190;-84
2022/10/05 01:53:47;;;;;;;76.85;22.42;;;11.60;99.90;;;;;;5020674;28;20157;-84
2022/10/05 01:56:24;;;;;;;81.60;24.30;;;11.50;99.90;;;;;;5037903;28;20176;-84
2022/10/05 01:59:20;;;;;;;76.13;24.02;;;11.50;99.90;;;;;;5038661;28;20688;-84
2022/10/05 02:01:57;;;;;;;82.45;22.85;;;11.50;99.90;;;;;;5021066;28;20185;-84
2022/10/05 02:04:28;;;;;;;88.43;22.13;;;11.50;99.90;;;;;;5038527;28;20165;-84
2022/10/05 02:06:54;;;;;;;82.30;23.98;;;11.50;99.90;;;;;;5038704;28;20181;-84
2022/10/05 02:09:36;;;;;;;81.93;23.08;;;11.50;99.90;;;;;;5041592;28;20184;-84
2022/10/05 02:12:13;;;;;;;76.47;18.95;;;11.40;99.90;;;;;;5042456;28;20177;-84
2022/10/05 02:14:41;;;;;;;79.95;19.58;;;11.40;99.90;;;;;;5042452;28;20157;-84
2022/10/05 02:17:33;;;;;;;76.88;20.73;;;11.40;99.90;;;;;;5041636;28;20212;-84
2022/10/05 02:20:04;;;;;;;77.00;19.15;;;11.50;99.90;;;;;;5034912;28;20190;-84
2022/10/05 02:22:47;;;;;;;75.72;18.40;;;11.40;99.90;;;;;;5041514;28;20157;-84
2022/10/05 02:25:15;;;;;;;80.07;20.15;;;11.30;99.90;;;;;;5042320;28;20145;-84
2022/10/05 02:27:50;;;;;;;81.93;18.42;;;11.30;99.90;;;;;;5041341;28;20267;-84
2022/10/05 02:30:18;;;;;;;81.35;21.27;;;11.40;99.90;;;;;;5041848;28;20150;-84
2022/10/05 02:33:09;;;;;;;82.32;21.42;;;11.40;99.90;;;;;;5041631;28;20240;-84
2022/10/05 02:35:35;;;;;;;79.13;19.58;;;11.40;99.90;;;;;;5041555;28;20215;-84
2022/10/05 02:38:34;;;;;;;76.10;16.23;;;11.30;99.90;;;;;;5041130;28;20181;-84
2022/10/05 02:41:29;;;;;;;77.75;18.30;;;11.30;99.90;;;;;;5041700;28;20216;-84
2022/10/05 02:44:05;;;;;;;77.57;16.80;;;11.40;99.90;;;;;;5041645;28;20149;-84
2022/10/05 02:46:46;;;;;;;90.35;21.85;;;11.30;99.90;;;;;;5041708;28;20183;-84
2022/10/05 02:49:21;;;;;;;80.53;19.45;;;11.50;99.90;;;;;;5041086;28;20181;-84
2022/10/05 02:52:09;;;;;;;78.85;21.90;;;11.40;99.90;;;;;;5041346;28;20222;-84
2022/10/05 02:54:47;;;;;;;75.75;20.45;;;11.40;99.90;;;;;;5041310;28;20669;-84
2022/10/05 02:57:26;;;;;;;81.95;20.75;;;11.40;99.90;;;;;;5041629;28;20180;-84
2022/10/05 03:00:03;;;;;;;77.03;19.00;;;11.40;99.90;;;;;;5041620;28;20189;-84
2022/10/05 03:02:58;;;;;;;81.18;21.27;;;11.30;99.90;;;;;;5041720;28;20180;-84
2022/10/05 03:05:36;;;;;;;78.97;18.83;;;11.30;99.90;;;;;;5041691;28;20188;-84
2022/10/05 03:08:14;;;;;;;87.07;22.30;;;11.20;99.90;;;;;;5041729;28;20276;-84
2022/10/05 03:11:06;;;;;;;80.15;18.00;;;11.10;99.90;;;;;;5041727;28;20156;-84
2022/10/05 03:14:02;;;;;;;78.53;18.48;;;11.20;99.90;;;;;;5041441;28;20209;-85
2022/10/05 03:16:47;;;;;;;80.13;19.88;;;11.10;99.90;;;;;;5041597;28;20192;-84
2022/10/05 03:20:06;;;;;;;77.50;21.15;;;11.10;99.90;;;;;;5040530;28;20184;-84
2022/10/05 03:22:41;;;;;;;79.57;19.23;;;11.10;99.90;;;;;;5000047;28;20241;-84
2022/10/05 03:25:57;;;;;;;78.13;17.35;;;11.10;99.90;;;;;;5039810;28;20191;-84
2022/10/05 03:28:44;;;;;;;75.10;17.08;;;11.10;99.90;;;;;;5000117;28;20187;-84
2022/10/05 03:31:29;;;;;;;75.18;14.25;;;11.10;99.90;;;;;;4999482;28;20186;-84
2022/10/05 03:33:58;;;;;;;78.22;15.48;;;11.10;99.90;;;;;;5034075;28;20177;-84
2022/10/05 03:36:40;;;;;;;81.30;17.02;;;11.10;99.90;;;;;;5041173;28;20180;-84
2022/10/05 03:39:29;;;;;;;77.55;16.10;;;11.10;99.90;;;;;;5041376;28;20184;-85
2022/10/05 03:42:13;;;;;;;74.57;16.70;;;11.10;99.90;;;;;;5040785;28;20219;-85
2022/10/05 03:44:47;;;;;;;74.68;17.33;;;11.10;99.90;;;;;;5040731;28;20640;-84
2022/10/05 03:47:33;;;;;;;76.28;14.65;;;11.10;99.90;;;;;;5040782;28;20210;-84
2022/10/05 03:50:19;;;;;;;76.30;16.45;;;11.10;99.90;;;;;;5041007;28;20189;-84
2022/10/05 03:53:04;;;;;;;75.30;16.42;;;11.10;99.90;;;;;;5022609;28;20312;-84
2022/10/05 03:55:48;;;;;;;75.93;16.90;;;11.10;99.90;;;;;;5040753;28;20483;-84
2022/10/05 03:58:27;;;;;;;77.40;20.38;;;11.20;99.90;;;;;;5040688;28;20192;-84
2022/10/05 04:00:57;;;;;;;75.68;19.38;;;11.20;99.90;;;;;;5040662;28;20168;-84
2022/10/05 04:03:29;;;;;;;80.05;18.35;;;11.20;99.90;;;;;;5040828;28;20184;-84
2022/10/05 04:06:02;;;;;;;77.85;19.27;;;11.20;99.90;;;;;;5040381;28;20177;-84
2022/10/05 04:08:49;;;;;;;77.30;18.58;;;11.20;99.90;;;;;;5040318;28;20181;-84
2022/10/05 04:11:21;;;;;;;78.05;20.42;;;11.10;99.90;;;;;;5040417;28;20161;-84
2022/10/05 04:14:02;;;;;;;84.00;20.30;;;11.10;99.90;;;;;;5040473;28;20192;-84
2022/10/05 04:16:33;;;;;;;78.05;21.33;;;11.10;99.90;;;;;;5040614;28;20208;-84
2022/10/05 04:19:23;;;;;;;77.20;20.08;;;11.10;99.90;;;;;;5040068;28;20186;-84
2022/10/05 04:22:02;;;;;;;75.63;20.98;;;11.10;99.90;;;;;;5039998;28;20169;-84
2022/10/05 04:24:35;;;;;;;76.90;20.75;;;11.10;99.90;;;;;;5039502;28;20160;-84
2022/10/05 04:27:25;;;;;;;81.97;21.80;;;11.00;99.90;;;;;;5039884;28;20322;-84
2022/10/05 04:30:06;;;;;;;79.22;21.10;;;11.10;99.90;;;;;;5039609;28;20175;-84
2022/10/05 04:32:42;;;;;;;77.18;20.95;;;11.10;99.90;;;;;;5039973;28;20544;-84
2022/10/05 04:35:32;;;;;;;77.47;20.77;;;11.10;99.90;;;;;;5022001;28;20164;-84
2022/10/05 04:38:12;;;;;;;77.65;19.20;;;11.10;99.90;;;;;;5039803;28;20181;-84
2022/10/05 04:40:55;;;;;;;84.30;22.08;;;11.10;99.90;;;;;;5039598;28;20559;-84
2022/10/05 04:44:02;;;;;;;80.78;22.38;;;11.10;99.90;;;;;;5039006;28;20169;-84
2022/10/05 04:46:46;;;;;;;80.22;21.27;;;11.20;99.90;;;;;;5039164;28;20205;-84
2022/10/05 04:49:39;;;;;;;80.55;22.60;;;11.30;99.90;;;;;;5039403;28;20264;-84
2022/10/05 04:52:19;;;;;;;78.80;19.75;;;11.30;99.90;;;;;;5040068;28;20157;-84
2022/10/05 04:55:11;;;;;;;86.65;22.77;;;11.40;99.90;;;;;;5040230;28;20240;-84
2022/10/05 04:58:07;;;;;;;83.57;21.38;;;11.40;99.90;;;;;;5039425;28;20168;-84
2022/10/05 05:00:55;;;;;;;80.63;24.92;;;11.40;99.90;;;;;;5039413;28;20164;-84
2022/10/05 05:03:42;;;;;;;79.00;19.35;;;11.40;99.90;;;;;;5121609;22;20224;-84
2022/10/05 05:06:14;;;;;;;81.43;20.10;;;11.40;99.90;;;;;;5043091;28;20185;-84
2022/10/05 05:09:10;;;;;;;82.68;22.98;;;11.40;99.90;;;;;;5024735;28;20192;-84
2022/10/05 05:12:14;;;;;;;80.40;21.15;;;11.50;99.90;;;;;;5024925;28;20172;-84
2022/10/05 05:15:06;;;;;;;78.38;23.50;;;11.50;99.90;;;;;;5024432;28;20161;-84
2022/10/05 05:17:31;;;;;;;80.07;24.20;;;11.50;99.90;;;;;;5026676;28;20181;-84
2022/10/05 05:20:19;;;;;;;77.00;22.10;;;11.40;99.90;;;;;;5042299;28;20506;-84
2022/10/05 05:22:54;;;;;;;78.95;20.45;;;11.40;99.90;;;;;;5025019;28;20637;-84
2022/10/05 05:25:34;;;;;;;79.03;23.42;;;11.40;99.90;;;;;;5024982;28;20311;-84
2022/10/05 05:28:05;;;;;;;80.95;23.92;;;11.40;99.90;;;;;;5042338;28;20206;-84
2022/10/05 05:30:44;;;;;;;80.45;21.95;;;11.30;99.90;;;;;;5042685;28;20237;-84
2022/10/05 05:33:23;;;;;;;79.07;22.20;;;11.30;99.90;;;;;;5042110;28;20219;-84
2022/10/05 05:36:06;;;;;;;77.80;22.33;;;11.40;99.90;;;;;;5023704;28;20196;-84
2022/10/05 05:39:00;;;;;;;76.32;23.40;;;11.40;99.90;;;;;;5041630;28;20216;-84
2022/10/05 05:41:50;;;;;;;77.43;21.80;;;11.40;99.90;;;;;;5041429;28;20533;-84
2022/10/05 05:44:25;;;;;;;80.47;22.58;;;11.40;99.90;;;;;;5045537;28;20164;-84
2022/10/05 05:47:14;;;;;;;77.88;21.92;;;11.40;99.90;;;;;;5045911;28;20207;-84
2022/10/05 05:50:07;;;;;;;77.63;22.58;;;11.50;99.90;;;;;;5028109;28;20193;-84
2022/10/05 05:52:48;;;;;;;80.88;22.20;;;11.40;99.90;;;;;;5043448;28;20158;-84
2022/10/05 05:55:39;;;;;;;77.40;23.67;;;11.40;99.90;;;;;;5026753;28;20161;-84
2022/10/05 05:58:23;;;;;;;81.72;25.52;;;11.50;99.90;;;;;;5043987;28;20201;-85
2022/10/05 06:00:58;;;;;;;78.15;21.25;;;11.60;99.90;;;;;;5044453;28;20224;-85
2022/10/05 06:03:38;;;;;;;79.70;22.73;;;11.60;99.90;;;;;;5043643;28;20183;-84
2022/10/05 06:06:12;;;;;;;79.82;22.92;;;11.60;99.90;;;;;;5044074;28;20211;-84
2022/10/05 06:08:56;;;;;;;76.60;22.45;;;11.60;99.90;;;;;;5025838;28;20197;-84
2022/10/05 06:11:25;;;;;;;80.28;22.00;;;11.60;99.90;;;;;;5043935;28;20499;-84
2022/10/05 06:13:52;;;;;;;76.82;23.45;;;11.70;99.90;;;;;;5026056;28;20244;-84
2022/10/05 06:16:34;;;;;;;76.82;22.85;;;11.70;99.90;;;;;;5047981;28;20227;-84
2022/10/05 06:19:20;;;;;;;76.85;23.60;;;11.80;99.90;;;;;;5048766;28;20258;-83
2022/10/05 06:22:02;;;;;;;75.75;22.00;;;11.90;99.90;;;;;;5047643;28;20502;-84
2022/10/05 06:24:34;;;;;;;79.28;23.63;;;11.90;99.90;;;;;;5047955;28;20157;-84
2022/10/05 06:27:17;;;;;;;77.30;22.73;;;12.00;99.90;;;;;;5047493;28;20185;-84
2022/10/05 06:30:01;;;;;;;80.90;26.08;;;12.10;99.90;;;;;;5046207;28;20203;-84
2022/10/05 06:32:32;;;;;;;75.30;21.13;;;12.10;99.90;;;;;;5029330;28;20165;-84
2022/10/05 06:35:07;;;;;;;75.45;20.65;;;12.20;99.90;;;;;;5047650;28;20146;-84
2022/10/05 06:38:23;;;;;;;79.05;23.88;;;12.30;99.90;;;;;;5029064;28;20172;-84
2022/10/05 06:40:52;;;;;;;82.13;23.90;;;12.40;99.90;;;;;;5025940;28;20201;-84
2022/10/05 06:43:17;;;;;;;78.28;25.02;;;12.50;99.90;;;;;;5046415;28;20165;-84
2022/10/05 06:46:04;;;;;;;81.17;26.80;;;12.50;99.90;;;;;;5045420;28;20247;-84
2022/10/05 06:48:57;;;;;;;78.13;27.73;;;12.60;99.90;;;;;;5045875;28;20245;-83
2022/10/05 06:51:47;;;;;;;78.95;25.05;;;12.60;99.90;;;;;;5046233;28;20150;-84
2022/10/05 06:54:30;;;;;;;84.72;30.77;;;12.70;99.90;;;;;;5042760;28;20204;-83
2022/10/05 06:57:11;;;;;;;85.65;30.17;;;12.70;99.90;;;;;;5022506;28;20157;-83
2022/10/05 06:59:37;;;;;;;83.22;31.50;;;12.80;99.90;;;;;;5043634;28;20184;-84
2022/10/05 07:02:11;;;;;;;82.37;30.67;;;12.80;99.90;;;;;;5043404;28;20597;-83
2022/10/05 07:05:01;;;;;;;80.18;33.70;;;12.90;99.90;;;;;;5042740;28;20157;-84
2022/10/05 07:07:41;;;;;;;81.15;31.02;;;12.80;99.90;;;;;;5042463;28;20201;-84
2022/10/05 07:10:28;;;;;;;81.07;36.08;;;12.90;99.90;;;;;;5024851;28;20158;-84
2022/10/05 07:13:18;;;;;;;80.17;32.00;;;13.00;99.90;;;;;;5017935;28;20180;-85
2022/10/05 07:15:52;;;;;;;80.57;31.70;;;12.90;99.90;;;;;;5042068;28;20396;-84
2022/10/05 07:18:17;;;;;;;80.25;32.47;;;13.00;99.90;;;;;;5042762;28;20647;-84
2022/10/05 07:21:00;;;;;;;83.50;35.30;;;13.00;99.90;;;;;;5042666;28;20200;-84
2022/10/05 07:23:41;;;;;;;84.05;34.20;;;13.00;99.90;;;;;;5042210;28;20287;-84
2022/10/05 07:26:17;;;;;;;78.67;31.07;;;13.00;99.90;;;;;;5041730;28;20675;-84
2022/10/05 07:28:47;;;;;;;79.88;31.30;;;13.10;99.90;;;;;;5024509;28;20438;-84
2022/10/05 07:31:17;;;;;;;81.22;31.45;;;13.10;99.90;;;;;;5042003;28;20172;-84
2022/10/05 07:33:51;;;;;;;79.50;32.47;;;13.20;99.90;;;;;;5024500;28;20169;-84
2022/10/05 07:39:30;;;;;;;79.53;33.67;;;13.30;99.90;;;;;;5042019;28;20196;-84
2022/10/05 07:42:17;;;;;;;81.50;29.70;;;13.40;99.90;;;;;;5041759;28;20149;-84
2022/10/05 07:44:52;;;;;;;78.80;28.30;;;13.40;99.90;;;;;;5041539;28;20385;-84
2022/10/05 07:47:17;;;;;;;80.47;33.37;;;13.50;99.90;;;;;;5042057;28;20435;-84
2022/10/05 07:49:49;;;;;;;81.60;33.63;;;13.50;99.90;;;;;;5024480;28;20435;-84
2022/10/05 07:52:22;;;;;;;77.97;19.52;;;13.60;99.90;;;;;;5041756;28;20167;-84
2022/10/05 07:55:39;;;;;;;78.65;20.45;;;13.60;99.90;;;;;;5023427;28;20180;-84
2022/10/05 07:58:11;;;;;;;77.17;16.20;;;13.70;99.90;;;;;;5018699;28;20210;-84
2022/10/05 08:00:46;;;;;;;74.30;14.10;;;13.70;99.90;;;;;;5040688;28;20368;-84
2022/10/05 08:03:48;;;;;;;75.55;16.98;;;13.70;99.90;;;;;;5019962;28;20443;-83
2022/10/05 08:06:33;;;;;;;73.78;14.10;;;13.80;99.90;;;;;;5008312;28;20223;-83
2022/10/05 08:09:27;;;;;;;76.60;16.47;;;13.80;99.90;;;;;;5042891;28;20220;-83
2022/10/05 08:12:13;;;;;;;75.77;15.80;;;13.80;99.90;;;;;;5035216;28;20407;-83
2022/10/05 08:15:08;;;;;;;73.20;14.57;;;13.80;99.90;;;;;;5022701;28;20772;-83
2022/10/05 08:17:53;;;;;;;73.10;13.93;;;13.90;99.90;;;;;;5024348;28;20933;-83
2022/10/05 08:20:44;;;;;;;72.87;14.07;;;14.00;99.90;;;;;;5041263;28;20392;-83
2022/10/05 08:23:10;;;;;;;71.78;11.63;;;14.10;99.90;;;;;;5023630;28;20466;-83
2022/10/05 08:26:21;;;;;;;72.60;12.50;;;14.20;99.90;;;;;;5024121;28;20197;-83
2022/10/05 08:29:05;;;;;;;72.80;11.83;;;14.30;99.90;;;;;;5006755;28;20309;-83
2022/10/05 08:31:36;;;;;;;71.80;11.30;;;14.30;99.90;;;;;;5042862;28;20376;-83
2022/10/05 08:34:16;;;;;;;71.70;10.70;;;14.30;99.90;;;;;;5042839;28;20381;-84
2022/10/05 08:37:00;;;;;;;72.10;11.77;;;14.40;99.90;;;;;;5044174;28;20379;-83
2022/10/05 08:39:33;;;;;;;76.57;11.73;;;14.50;99.90;;;;;;5025383;28;20431;-84
2022/10/05 08:42:18;;;;;;;78.90;14.47;;;14.60;99.90;;;;;;5022320;28;20950;-83
2022/10/05 08:45:05;;;;;;;72.00;13.30;;;14.70;99.90;;;;;;5040201;28;20373;-84
2022/10/05 08:47:52;;;;;;;70.47;11.70;;;14.80;99.90;;;;;;5040173;28;20435;-84
2022/10/05 08:50:41;;;;;;;72.40;12.60;;;14.90;99.90;;;;;;5040014;28;20740;-83
2022/10/05 08:53:18;;;;;;;75.50;11.57;;;14.90;99.90;;;;;;5020605;28;20418;-83
2022/10/05 08:55:53;;;;;;;72.43;10.50;;;15.00;99.90;;;;;;5039822;28;20403;-83
2022/10/05 08:58:45;;;;;;;71.67;11.90;;;15.10;99.90;;;;;;5039649;28;20419;-83
2022/10/05 09:01:25;;;;;;;71.60;10.13;;;15.20;99.90;;;;;;5020436;28;20503;-83
2022/10/05 09:04:15;;;;;;;70.03;10.07;;;15.30;99.90;;;;;;5040092;28;20456;-83
2022/10/05 09:07:15;;;;;;;72.00;8.80;;;15.50;99.90;;;;;;5022864;28;20462;-83
2022/10/05 09:09:59;;;;;;;74.40;9.73;;;15.50;99.90;;;;;;5040670;28;21059;-83
2022/10/05 09:12:28;;;;;;;71.80;8.80;;;15.60;99.90;;;;;;5021749;28;20443;-83
2022/10/05 09:15:00;;;;;;;68.73;7.90;;;15.80;99.90;;;;;;5020829;28;20488;-82
2022/10/05 09:17:48;;;;;;;67.77;7.37;;;16.00;99.90;;;;;;5018510;28;20804;-81
2022/10/05 09:20:23;;;;;;;70.83;7.23;;;16.10;99.90;;;;;;5040876;28;20426;-83
2022/10/05 09:23:09;;;;;;;68.87;6.50;;;16.20;99.90;;;;;;5020300;28;20406;-83
2022/10/05 09:25:42;;;;;;;67.40;6.67;;;16.50;99.90;;;;;;5041210;28;20440;-83
2022/10/05 09:28:40;;;;;;;70.97;6.40;;;16.60;99.90;;;;;;5040898;28;20429;-83
2022/10/05 09:31:28;;;;;;;74.80;6.00;;;16.70;99.90;;;;;;5040073;28;20382;-83
2022/10/05 09:34:24;;;;;;;66.30;6.40;;;16.60;99.90;;;;;;5039540;28;20390;-83
2022/10/05 09:37:01;;;;;;;68.47;5.97;;;16.60;99.90;;;;;;5022025;28;20437;-84
2022/10/05 09:39:36;;;;;;;68.47;6.40;;;16.60;99.90;;;;;;5039643;28;20448;-83
2022/10/05 09:42:21;;;;;;;67.20;5.60;;;16.60;99.90;;;;;;5040107;28;20917;-84
2022/10/05 09:45:14;;;;;;;68.70;7.93;;;16.50;99.90;;;;;;5039828;28;20392;-84
2022/10/05 09:48:04;;;;;;;70.20;7.30;;;16.50;99.90;;;;;;5040183;28;20771;-84
2022/10/05 09:50:58;;;;;;;69.70;8.27;;;16.60;99.90;;;;;;5022080;28;20486;-84
2022/10/05 09:53:53;;;;;;;67.57;6.20;;;16.60;99.90;;;;;;5022365;28;20407;-84
2022/10/05 09:56:48;;;;;;;67.57;7.17;;;16.60;99.90;;;;;;5026388;28;20398;-84
2022/10/05 09:59:26;;;;;;;73.20;7.70;;;16.60;99.90;;;;;;5017776;28;20424;-84
2022/10/05 10:02:15;;;;;;;67.90;7.50;;;16.80;99.90;;;;;;5043098;28;20468;-83
2022/10/05 10:05:04;;;;;;;69.37;5.97;;;16.90;99.90;;;;;;5043957;28;20390;-84
2022/10/05 10:07:39;;;;;;;67.27;6.40;;;17.30;99.90;;;;;;5022187;28;20529;-84
2022/10/05 10:10:35;;;;;;;67.60;7.30;;;17.40;99.90;;;;;;5024203;28;20819;-84
2022/10/05 10:13:35;;;;;;;68.13;7.43;;;17.50;99.90;;;;;;5025386;28;20498;-83
2022/10/05 10:16:26;;;;;;;73.60;7.80;;;17.60;99.90;;;;;;5041517;28;20404;-84
2022/10/05 10:19:11;;;;;;;70.90;7.33;;;17.60;99.90;;;;;;5041190;28;20435;-84
2022/10/05 10:21:52;;;;;;;67.97;7.60;;;17.70;99.90;;;;;;5040458;28;20391;-84
2022/10/05 10:24:27;;;;;;;70.63;10.57;;;17.80;99.90;;;;;;5040015;28;20408;-84
2022/10/05 10:27:11;;;;;;;71.47;11.20;;;17.90;99.90;;;;;;5022267;28;20489;-84
2022/10/05 10:29:56;;;;;;;68.90;10.80;;;17.90;99.90;;;;;;5043416;28;20428;-84
2022/10/05 10:32:49;;;;;;;72.80;16.90;;;18.30;99.90;;;;;;5044810;28;20407;-84
2022/10/05 10:35:36;;;;;;;71.57;16.80;;;18.40;99.90;;;;;;5043246;28;20924;-84
2022/10/05 10:38:33;;;;;;;72.20;19.90;;;18.70;99.90;;;;;;5044126;28;20487;-84
2022/10/05 10:41:13;;;;;;;74.80;13.30;;;19.10;99.90;;;;;;5042875;28;20463;-84
2022/10/05 10:44:21;;;;;;;71.10;13.80;;;18.90;94.90;;;;;;5043460;28;20453;-84
2022/10/05 10:47:33;;;;;;;70.20;11.30;;;18.90;94.50;;;;;;5043241;28;20454;-85
2022/10/05 10:50:17;;;;;;;66.80;8.10;;;18.80;92.80;;;;;;5022287;28;20393;-82
2022/10/05 10:52:43;;;;;;;67.87;8.70;;;18.90;93.00;;;;;;5040325;28;20415;-84
2022/10/05 10:55:23;;;;;;;67.13;6.63;;;19.30;93.00;;;;;;5022202;28;20404;-83
2022/10/05 10:58:13;;;;;;;66.90;5.20;;;19.50;85.10;;;;;;5040889;28;20189;-83
2022/10/05 11:00:53;;;;;;;65.37;4.50;;;19.70;69.90;;;;;;5040099;28;20406;-83
2022/10/05 11:03:25;;;;;;;65.90;3.97;;;19.80;63.50;;;;;;5108489;22;20502;-83
2022/10/05 11:06:28;;;;;;;65.60;4.40;;;19.70;65.20;;;;;;5041416;28;20444;-84
2022/10/05 11:09:00;;;;;;;65.77;3.57;;;19.60;60.20;;;;;;5022663;28;20577;-84
2022/10/05 11:12:03;;;;;;;65.97;5.10;;;19.70;59.70;;;;;;5041236;28;20740;-83
2022/10/05 11:14:53;;;;;;;66.50;4.70;;;20.00;49.10;;;;;;5021101;28;20423;-83
2022/10/05 11:17:47;;;;;;;66.90;4.90;;;20.20;50.90;;;;;;5040265;28;20381;-84
2022/10/05 11:20:34;;;;;;;66.80;4.20;;;20.40;43.90;;;;;;5041612;28;20381;-84
2022/10/05 11:23:06;;;;;;;67.10;4.03;;;20.50;38.60;;;;;;5039386;28;20381;-84
2022/10/05 11:25:54;;;;;;;68.57;4.07;;;20.70;32.30;;;;;;5039383;28;20788;-84
2022/10/05 11:28:45;;;;;;;65.93;4.33;;;20.70;34.80;;;;;;5040756;28;20420;-83
2022/10/05 11:31:37;;;;;;;65.90;3.77;;;20.50;22.60;;;;;;5022065;28;20439;-84
2022/10/05 11:34:48;;;;;;;66.97;3.97;;;20.60;31.30;;;;;;5007500;28;20431;-84
2022/10/05 11:37:31;;;;;;;67.30;3.87;;;20.70;29.70;;;;;;5039603;28;20388;-84
2022/10/05 11:40:19;;;;;;;65.37;3.20;;;20.90;24.20;;;;;;5039394;28;20386;-84
2022/10/05 11:43:06;;;;;;;66.97;4.17;;;20.70;25.50;;;;;;5040654;28;20377;-84
2022/10/05 11:45:53;;;;;;;65.47;3.57;;;20.80;19.80;;;;;;5039252;28;20787;-84
2022/10/05 11:48:45;;;;;;;67.57;3.37;;;21.00;23.50;;;;;;5039998;28;20845;-83
2022/10/05 11:51:29;;;;;;;68.30;4.10;;;20.80;19.90;;;;;;5036976;28;20414;-84
2022/10/05 11:54:05;;;;;;;68.17;6.80;;;21.00;17.80;;;;;;5039360;28;20402;-83
2022/10/05 11:56:55;;;;;;;68.90;6.23;;;21.20;11.80;;;;;;5040065;28;20388;-83
2022/10/05 11:59:38;;;;;;;67.57;7.83;;;21.10;10.10;;;;;;5040312;28;20426;-83
2022/10/05 12:02:36;;;;;;;69.30;6.63;;;21.10;11.50;;;;;;5040403;28;20416;-84
2022/10/05 12:05:31;;;;;;;68.43;8.83;;;21.20;3.80;;;;;;5000709;28;20424;-84
2022/10/05 12:08:15;;;;;;;69.03;10.07;;;21.20;2.10;;;;;;5039977;28;20838;-84
2022/10/05 12:10:47;;;;;;;68.63;8.10;;;21.30;1.00;;;;;;5040448;28;20808;-84
2022/10/05 12:13:30;;;;;;;66.97;7.80;;;21.30;1.00;;;;;;5022894;28;20774;-84
2022/10/05 12:16:26;;;;;;;68.57;9.00;;;21.20;3.80;;;;;;5039863;28;20381;-84
2022/10/05 12:19:05;;;;;;;67.80;7.90;;;21.10;1.70;;;;;;5024537;28;20510;-84
2022/10/05 12:21:58;;;;;;;69.47;8.20;;;21.00;6.50;;;;;;5038503;28;20929;-84
2022/10/05 12:25:05;;;;;;;67.53;8.17;;;21.10;16.40;;;;;;5039157;28;20466;-83
2022/10/05 12:27:37;;;;;;;68.80;8.80;;;21.30;8.20;;;;;;5024700;28;20887;-83
2022/10/05 12:30:44;;;;;;;68.17;8.93;;;21.20;5.20;;;;;;5038722;28;20390;-83
2022/10/05 12:33:47;;;;;;;71.53;7.27;;;21.20;3.70;;;;;;5009408;28;20883;-84
2022/10/05 12:36:27;;;;;;;69.40;8.27;;;21.10;9.60;;;;;;5041440;28;20734;-83
2022/10/05 12:39:14;;;;;;;68.10;8.70;;;21.40;8.30;;;;;;5039447;28;20410;-84
2022/10/05 12:41:48;;;;;;;68.57;7.33;;;21.50;1.10;;;;;;5039234;28;20439;-84
2022/10/05 12:44:32;;;;;;;70.00;6.60;;;21.40;1.00;;;;;;5021240;28;20765;-83
2022/10/05 12:47:06;;;;;;;72.10;9.77;;;21.20;5.90;;;;;;5039360;28;20428;-83
2022/10/05 12:49:39;;;;;;;68.00;7.30;;;21.40;8.80;;;;;;5022409;28;20597;-83
2022/10/05 12:52:13;;;;;;;69.70;8.03;;;21.30;1.00;;;;;;5039818;28;20817;-82
2022/10/05 12:54:44;;;;;;;66.57;6.20;;;21.20;1.00;;;;;;5039068;28;20382;-84
2022/10/05 12:57:19;;;;;;;66.77;6.10;;;21.10;2.00;;;;;;5039908;28;20441;-84
2022/10/05 12:59:53;;;;;;;72.43;6.60;;;21.00;3.30;;;;;;5022220;28;20457;-84
2022/10/05 13:02:42;;;;;;;66.77;5.70;;;21.00;8.10;;;;;;5038941;28;20930;-84
2022/10/05 13:05:08;;;;;;;68.17;6.80;;;21.00;8.60;;;;;;5038964;28;20926;-82
2022/10/05 13:08:16;;;;;;;67.37;6.53;;;20.90;10.50;;;;;;5037866;28;20577;-82
2022/10/05 13:10:55;;;;;;;70.90;7.00;;;20.90;7.50;;;;;;5043159;28;20169;-83
2022/10/05 13:13:27;;;;;;;67.57;6.90;;;20.90;11.40;;;;;;5040175;28;20469;-83
2022/10/05 13:16:13;;;;;;;69.43;7.90;;;20.90;15.80;;;;;;5022578;28;20898;-83
2022/10/05 13:18:48;;;;;;;68.20;8.03;;;21.00;17.30;;;;;;5039120;28;20436;-83
2022/10/05 13:21:14;;;;;;;69.30;6.73;;;21.00;21.50;;;;;;5039926;28;20813;-83
2022/10/05 13:24:11;;;;;;;68.90;7.27;;;21.00;20.70;;;;;;5022251;28;20421;-83
2022/10/05 13:26:49;;;;;;;67.30;6.63;;;20.90;16.90;;;;;;5020432;28;20249;-83
2022/10/05 13:29:18;;;;;;;66.57;6.63;;;20.80;17.80;;;;;;5035792;28;20483;-82
2022/10/05 13:31:48;;;;;;;69.97;6.70;;;20.70;18.80;;;;;;5035308;28;20917;-82
2022/10/05 13:34:49;;;;;;;66.20;6.23;;;20.70;20.10;;;;;;5019159;28;20406;-82
2022/10/05 13:37:43;;;;;;;67.43;5.60;;;20.60;19.90;;;;;;4998174;28;20416;-82
2022/10/05 13:40:26;;;;;;;73.80;6.20;;;20.60;19.60;;;;;;5017694;28;20401;-83
2022/10/05 13:43:02;;;;;;;66.67;5.93;;;20.60;16.70;;;;;;5041317;28;20389;-83
2022/10/05 13:45:54;;;;;;;67.77;6.53;;;20.50;20.80;;;;;;5022108;28;20401;-83
2022/10/05 13:48:57;;;;;;;67.17;6.43;;;20.50;19.60;;;;;;5034824;28;20444;-83
2022/10/05 13:51:53;;;;;;;68.20;5.20;;;20.50;19.80;;;;;;5039945;28;20754;-82
2022/10/05 13:54:41;;;;;;;67.57;4.43;;;20.50;24.60;;;;;;5040711;28;20400;-82